Time;durP1;ratioP1;P1;durP2;ratioP2;P2;SDS_P1;SDS_P2;PMS_P1;PMS_P2;Temp;Humidity;BMP_temperature;BMP_pressure;BME280_temperature;BME280_humidity;BME280_pressure;Samples;Min_cycle;Max_cycle;Signal;HPM_P1;HPM_P2
2022/07/11 00:02:15;;;;;;;1.58;0.85;;;;;;;19.20;41.66;100673.81;18563628;32;20092;-55
2022/07/11 00:12:20;;;;;;;0.80;0.70;;;;;;;19.14;41.66;100679.31;18564422;32;20389;-55
2022/07/11 00:22:25;;;;;;;1.62;0.70;;;;;;;19.11;41.47;100671.50;18563164;32;20096;-55
2022/07/11 00:32:28;;;;;;;1.35;0.90;;;;;;;19.08;41.08;100664.50;18563828;32;20122;-55
2022/07/11 00:42:32;;;;;;;3.70;0.80;;;;;;;19.12;41.13;100660.00;18562374;32;20092;-55
2022/07/11 00:52:36;;;;;;;2.10;0.60;;;;;;;19.10;41.25;100665.31;18562238;32;20097;-55
2022/07/11 01:02:41;;;;;;;2.08;0.60;;;;;;;18.96;41.74;100663.09;18562109;32;20101;-56
2022/07/11 01:12:44;;;;;;;1.37;0.70;;;;;;;18.91;41.89;100662.41;18561379;32;20110;-56
2022/07/11 01:22:53;;;;;;;2.25;0.60;;;;;;;18.65;42.45;100657.97;18561079;32;20392;-55
2022/07/11 01:32:58;;;;;;;1.37;0.80;;;;;;;18.79;42.10;100665.47;18561255;32;20107;-55
2022/07/11 01:43:01;;;;;;;0.82;0.80;;;;;;;18.64;43.01;100659.75;18560554;32;20114;-56
2022/07/11 01:53:06;;;;;;;2.65;0.77;;;;;;;18.58;42.49;100666.09;18559951;32;20092;-55
2022/07/11 02:03:09;;;;;;;1.30;0.70;;;;;;;18.78;42.30;100682.22;18558978;32;20111;-55
2022/07/11 02:13:15;;;;;;;2.85;0.80;;;;;;;18.84;42.37;100674.97;18559709;31;20106;-55
2022/07/11 02:23:19;;;;;;;2.22;1.02;;;;;;;18.68;42.74;100671.09;18556868;32;20096;-55
2022/07/11 02:33:23;;;;;;;0.90;0.80;;;;;;;18.24;44.39;100677.69;18557421;32;20358;-55
2022/07/11 02:43:27;;;;;;;1.12;0.62;;;;;;;17.88;45.46;100685.75;18556669;32;20092;-55
2022/07/11 02:53:33;;;;;;;1.73;0.82;;;;;;;18.06;45.50;100684.37;18556378;32;20089;-55
2022/07/11 03:03:36;;;;;;;0.70;0.70;;;;;;;17.78;45.74;100689.53;18556212;32;20101;-55
2022/07/11 03:13:41;;;;;;;2.53;1.15;;;;;;;17.76;46.26;100681.69;18557129;32;20152;-55
2022/07/11 03:23:45;;;;;;;0.98;0.73;;;;;;;17.61;46.75;100680.31;18564891;32;20088;-55
2022/07/11 03:33:49;;;;;;;1.40;0.85;;;;;;;17.48;47.32;100680.63;18564478;31;20193;-55
2022/07/11 03:43:52;;;;;;;1.23;0.77;;;;;;;17.57;47.48;100676.91;18563996;32;20092;-56
2022/07/11 03:53:57;;;;;;;1.23;0.80;;;;;;;17.96;46.58;100683.75;18563545;32;20111;-55
2022/07/11 04:04:00;;;;;;;1.12;0.90;;;;;;;18.22;46.01;100683.94;18563559;31;20096;-55
2022/07/11 04:14:05;;;;;;;1.10;0.75;;;;;;;18.58;45.37;100700.44;18563219;32;20460;-56
2022/07/11 04:24:08;;;;;;;14.40;1.98;;;;;;;18.86;44.64;100698.72;18563455;32;20144;-56
2022/07/11 04:34:13;;;;;;;1.73;0.85;;;;;;;19.44;44.57;100707.44;18562450;31;20092;-56
2022/07/11 04:44:16;;;;;;;3.33;1.00;;;;;;;20.07;43.47;100707.03;18562053;32;20088;-56
2022/07/11 04:54:22;;;;;;;2.08;0.60;;;;;;;20.74;41.85;100702.69;18562132;32;20110;-56
2022/07/11 05:04:25;;;;;;;2.83;0.77;;;;;;;20.03;43.18;100716.88;18562069;32;20089;-55
2022/07/11 05:14:30;;;;;;;2.12;0.90;;;;;;;20.97;40.72;100719.47;18561776;32;20479;-56
2022/07/11 05:24:33;;;;;;;2.15;0.73;;;;;;;21.56;39.84;100724.16;18562417;32;20081;-56
2022/07/11 05:34:38;;;;;;;1.75;0.70;;;;;;;22.11;37.13;100723.50;18559722;32;20186;-56
2022/07/11 05:44:41;;;;;;;5.25;1.00;;;;;;;22.25;38.22;100738.81;18560593;32;20123;-56
2022/07/11 05:54:45;;;;;;;3.08;0.88;;;;;;;22.47;37.69;100740.47;18558918;32;20106;-56
2022/07/11 06:04:49;;;;;;;2.42;0.90;;;;;;;22.62;37.74;100732.75;18556481;32;20100;-56
2022/07/11 06:14:53;;;;;;;1.25;0.62;;;;;;;22.82;36.46;100748.63;18553844;32;20422;-56
2022/07/11 06:24:57;;;;;;;2.85;0.80;;;;;;;23.10;35.43;100747.28;18556629;32;20088;-56
2022/07/11 06:35:01;;;;;;;1.45;0.80;;;;;;;23.20;35.44;100747.69;18558665;31;20110;-56
2022/07/11 06:45:06;;;;;;;2.15;0.65;;;;;;;24.04;33.42;100739.91;18556629;32;20111;-56
2022/07/11 06:55:11;;;;;;;2.05;0.73;;;;;;;24.45;32.06;100751.97;18564907;32;20084;-56
2022/07/11 07:05:14;;;;;;;2.83;0.70;;;;;;;24.03;33.53;100757.69;18563226;32;20095;-56
2022/07/11 07:15:19;;;;;;;1.45;0.73;;;;;;;24.03;33.24;100762.19;18562518;32;20540;-56
2022/07/11 07:25:22;;;;;;;2.03;0.65;;;;;;;23.71;34.98;100760.25;18564372;31;20093;-56
2022/07/11 07:35:27;;;;;;;1.45;0.60;;;;;;;23.75;34.19;100768.97;18565124;32;20439;-57
2022/07/11 07:45:30;;;;;;;1.33;0.70;;;;;;;23.61;34.81;100770.53;18563876;31;20093;-56
2022/07/11 07:55:35;;;;;;;1.48;0.90;;;;;;;23.52;35.06;100771.88;18564926;31;20330;-56
2022/07/11 08:05:39;;;;;;;3.03;0.80;;;;;;;23.52;34.01;100769.19;18562705;32;20092;-57
2022/07/11 08:15:52;;;;;;;1.65;0.60;;;;;;;23.58;34.71;100772.50;18590739;31;20092;-56
2022/07/11 08:25:56;;;;;;;2.15;0.70;;;;;;;23.56;33.93;100767.25;18629223;31;20098;-56
2022/07/11 08:36:00;;;;;;;3.17;0.75;;;;;;;23.97;33.08;100761.56;18628078;31;20423;-56
2022/07/11 08:46:03;;;;;;;0.93;0.50;;;;;;;23.85;32.91;100746.22;18627349;31;20088;-56
2022/07/11 08:56:39;;;;;;;1.77;0.47;;;;;;;25.73;27.56;100729.56;18627771;31;20102;-56
2022/07/11 09:06:42;;;;;;;1.58;0.57;;;;;;;25.90;26.19;100718.69;18627750;31;20088;-56
2022/07/11 09:16:54;;;;;;;0.77;0.40;;;;;;;26.25;27.50;100711.22;18626684;31;20088;-57
2022/07/11 09:26:57;;;;;;;2.30;0.60;;;;;;;26.63;26.17;100702.53;18626581;31;20090;-57
2022/07/11 09:37:02;;;;;;;2.50;0.65;;;;;;;26.80;25.24;100681.81;18623542;31;20458;-56
2022/07/11 09:47:09;;;;;;;1.75;0.62;;;;;;;26.74;24.40;100683.94;18609109;31;20105;-55
2022/07/11 09:57:15;;;;;;;1.77;0.65;;;;;;;27.23;24.07;100684.34;18563855;31;20123;-56
2022/07/11 10:07:18;;;;;;;1.75;0.62;;;;;;;27.88;22.60;100675.44;18557455;32;20392;-57
2022/07/11 10:17:28;;;;;;;2.70;0.62;;;;;;;28.43;22.90;100662.59;18553582;32;20458;-56
2022/07/11 10:27:37;;;;;;;5.55;0.95;;;;;;;28.45;22.09;100668.69;18548435;31;20096;-56
2022/07/11 10:37:53;;;;;;;1.95;0.88;;;;;;;27.04;24.34;100686.56;18564743;32;20100;-56
2022/07/11 10:48:10;;;;;;;3.03;0.80;;;;;;;26.13;25.75;100680.72;18563786;31;20107;-56
2022/07/11 10:58:21;;;;;;;2.78;1.02;;;;;;;26.84;24.38;100653.87;18564739;32;20124;-54
2022/07/11 11:08:44;;;;;;;2.53;0.70;;;;;;;26.94;23.55;100664.88;18562680;32;20725;-55
2022/07/11 11:18:49;;;;;;;4.28;0.80;;;;;;;27.17;23.59;100641.00;18549098;32;20088;-55
2022/07/11 11:28:57;;;;;;;4.35;0.90;;;;;;;27.57;21.67;100640.97;18562118;31;20140;-55
2022/07/11 11:39:01;;;;;;;3.37;0.70;;;;;;;27.88;23.06;100637.91;18561668;31;20100;-54
2022/07/11 11:49:05;;;;;;;1.20;0.60;;;;;;;27.00;23.51;100651.91;18561767;32;20365;-55
2022/07/11 11:59:12;;;;;;;1.65;0.70;;;;;;;27.28;23.99;100651.88;18560934;32;20115;-55
2022/07/11 12:09:22;;;;;;;2.30;0.90;;;;;;;27.03;24.62;100663.38;18560967;31;20108;-55
2022/07/11 12:19:34;;;;;;;3.45;0.90;;;;;;;26.55;25.73;100654.88;18561435;31;20102;-55
2022/07/11 12:29:44;;;;;;;2.87;0.80;;;;;;;27.15;25.38;100643.81;18599819;31;20188;-54
2022/07/11 12:39:51;;;;;;;2.72;0.90;;;;;;;28.35;23.80;100641.66;18609157;31;71102;-56
2022/07/11 12:49:54;;;;;;;3.10;0.80;;;;;;;27.63;24.18;100639.66;18583225;31;20451;-54
2022/07/11 13:00:13;;;;;;;3.65;0.90;;;;;;;27.97;22.61;100658.69;18620979;31;20093;-55
2022/07/11 13:10:17;;;;;;;2.85;0.57;;;;;;;27.55;24.43;100619.63;18623537;31;20130;-55
2022/07/11 13:20:23;;;;;;;3.17;0.80;;;;;;;28.54;21.47;100613.44;18622915;31;20416;-54
2022/07/11 13:30:30;;;;;;;2.95;0.82;;;;;;;28.10;22.66;100626.47;18624331;31;20084;-54
2022/07/11 13:40:55;;;;;;;3.17;0.90;;;;;;;27.05;24.21;100648.09;18608791;31;20096;-55
2022/07/11 13:50:58;;;;;;;1.65;0.65;;;;;;;26.94;23.39;100630.06;18623495;31;20108;-55
2022/07/11 14:01:02;;;;;;;1.65;0.82;;;;;;;26.95;24.40;100627.28;18618904;31;20440;-55
2022/07/11 14:11:06;;;;;;;3.78;0.93;;;;;;;26.93;24.43;100634.53;18604489;31;20611;-55
2022/07/11 14:21:11;;;;;;;1.60;0.70;;;;;;;27.67;24.45;100617.03;18555708;32;20115;-56
2022/07/11 14:31:14;;;;;;;1.10;0.73;;;;;;;28.22;22.87;100612.22;18557259;32;20085;-56
2022/07/11 14:41:19;;;;;;;3.83;0.77;;;;;;;28.24;23.09;100610.25;18553924;32;20441;-54
2022/07/11 14:51:22;;;;;;;1.48;0.90;;;;;;;28.42;22.67;100615.25;18556569;31;20095;-55
2022/07/11 15:01:46;;;;;;;5.20;1.20;;;;;;;28.22;23.44;100608.66;18618286;31;20108;-55
2022/07/11 15:22:13;;;;;;;2.75;0.85;;;;;;;27.69;25.25;100623.13;18627917;31;20106;-56
2022/07/11 15:32:16;;;;;;;3.33;0.90;;;;;;;27.30;24.60;100631.16;18627578;31;20095;-54
2022/07/11 15:42:21;;;;;;;2.47;0.82;;;;;;;26.99;25.50;100614.53;18626649;31;20115;-55
2022/07/11 15:52:24;;;;;;;2.70;0.77;;;;;;;26.73;25.46;100626.00;18627016;31;20092;-56
2022/07/11 16:02:29;;;;;;;2.85;1.10;;;;;;;26.88;24.63;100617.94;18626892;31;20125;-56
2022/07/11 16:12:32;;;;;;;1.70;0.80;;;;;;;26.78;24.18;100624.84;18611716;31;20096;-55
2022/07/11 16:22:40;;;;;;;3.20;0.62;;;;;;;26.50;24.44;100624.84;18587442;31;20116;-56
2022/07/11 16:32:49;;;;;;;2.08;0.70;;;;;;;26.53;22.32;100623.81;18564443;31;20391;-56
2022/07/11 16:53:15;;;;;;;3.75;1.00;;;;;;;26.27;24.38;100621.88;18559369;31;20096;-55
2022/07/11 17:03:20;;;;;;;3.83;0.80;;;;;;;26.08;25.21;100627.50;18575196;31;20104;-56
2022/07/11 17:13:23;;;;;;;0.77;0.70;;;;;;;25.86;26.09;100623.56;18561450;32;20093;-55
2022/07/11 17:23:28;;;;;;;2.55;0.85;;;;;;;25.54;25.95;100645.16;18561430;32;20616;-55
2022/07/11 17:33:31;;;;;;;4.10;0.90;;;;;;;25.60;26.71;100649.25;18559711;32;20114;-55
2022/07/11 17:43:35;;;;;;;1.23;0.62;;;;;;;25.32;26.40;100661.59;18547155;32;20100;-54
2022/07/11 17:53:39;;;;;;;1.67;0.70;;;;;;;25.08;27.33;100657.63;18429338;32;20150;-58
2022/07/11 18:03:44;;;;;;;1.95;0.73;;;;;;;24.78;26.92;100671.84;18429062;32;20093;-55
2022/07/11 18:13:48;;;;;;;2.37;0.80;;;;;;;24.87;26.96;100675.75;18427963;32;20097;-56
2022/07/11 18:23:52;;;;;;;1.65;0.80;;;;;;;24.66;27.70;100693.84;18428607;32;20116;-56
2022/07/11 18:33:56;;;;;;;2.03;0.88;;;;;;;24.35;28.23;100693.78;18428753;32;20112;-56
2022/07/11 18:44:03;;;;;;;2.10;0.85;;;;;;;24.14;28.48;100718.94;18435500;32;20097;-56
2022/07/11 18:54:06;;;;;;;2.55;0.70;;;;;;;23.63;29.40;100718.03;18565750;32;20088;-56
2022/07/11 19:04:11;;;;;;;2.47;0.95;;;;;;;23.38;29.78;100727.28;18565626;32;20093;-56
2022/07/11 19:14:14;;;;;;;1.73;0.80;;;;;;;23.11;30.24;100751.66;18551900;32;20100;-56
2022/07/11 19:24:19;;;;;;;2.30;1.10;;;;;;;22.81;31.18;100759.34;18600903;31;20092;-56
2022/07/11 19:34:22;;;;;;;2.92;1.00;;;;;;;22.60;31.60;100786.03;18629991;31;20107;-56
2022/07/11 19:44:27;;;;;;;2.58;1.10;;;;;;;22.26;32.47;100790.22;18616139;31;20436;-56
2022/07/11 20:04:52;;;;;;;2.47;1.02;;;;;;;22.12;33.36;100804.97;18562708;32;20114;-56
2022/07/11 20:14:56;;;;;;;2.17;1.00;;;;;;;22.02;33.79;100807.19;18561955;32;20100;-56
2022/07/11 20:25:01;;;;;;;3.05;1.08;;;;;;;21.82;34.19;100825.81;18561190;32;20100;-56
2022/07/11 20:35:06;;;;;;;1.50;0.90;;;;;;;21.32;35.58;100844.59;18562164;32;20115;-56
2022/07/11 20:45:13;;;;;;;3.67;1.27;;;;;;;21.18;35.92;100842.50;18561759;32;20122;-55
2022/07/11 20:55:16;;;;;;;2.28;1.02;;;;;;;21.01;36.89;100860.87;18562871;32;20096;-56
2022/07/11 21:05:21;;;;;;;4.47;1.40;;;;;;;20.42;39.19;100882.44;18561006;32;20097;-56
2022/07/11 21:15:24;;;;;;;3.78;1.12;;;;;;;19.97;39.55;100876.06;18571915;31;20141;-55
2022/07/11 21:25:29;;;;;;;3.08;1.48;;;;;;;19.52;41.03;100886.28;18560195;32;20173;-55
2022/07/11 21:35:32;;;;;;;2.30;1.30;;;;;;;19.18;41.96;100897.06;18560252;32;20085;-55
2022/07/11 21:45:37;;;;;;;2.20;1.10;;;;;;;18.92;42.21;100899.53;18546033;32;20157;-55
2022/07/11 21:55:46;;;;;;;3.55;1.20;;;;;;;18.51;43.76;100901.59;18560231;32;20096;-55
2022/07/11 22:05:51;;;;;;;3.15;1.20;;;;;;;18.20;44.71;100890.06;18559888;32;20148;-55
2022/07/11 22:15:54;;;;;;;3.33;1.25;;;;;;;17.78;45.71;100891.09;18559200;32;20111;-55
2022/07/11 22:25:59;;;;;;;1.73;1.10;;;;;;;17.81;45.95;100896.28;18566310;32;20111;-55
2022/07/11 22:36:02;;;;;;;2.12;1.20;;;;;;;17.54;47.07;100898.66;18566448;32;20114;-55
2022/07/11 22:46:07;;;;;;;1.73;1.20;;;;;;;17.30;47.63;100890.44;18566179;32;20096;-55
2022/07/11 22:56:30;;;;;;;1.75;1.17;;;;;;;17.57;46.88;100898.63;18566743;32;20101;-55
2022/07/11 23:06:34;;;;;;;2.72;1.27;;;;;;;17.26;47.54;100895.81;18565616;32;20103;-55
2022/07/11 23:16:38;;;;;;;1.85;1.00;;;;;;;17.04;48.13;100899.78;18564894;32;20098;-55
2022/07/11 23:26:43;;;;;;;2.53;1.08;;;;;;;16.98;48.08;100891.09;18565082;32;20092;-55
2022/07/11 23:36:46;;;;;;;1.87;1.00;;;;;;;16.78;49.13;100893.22;18563699;32;20452;-55
2022/07/11 23:46:50;;;;;;;2.78;1.12;;;;;;;16.62;49.38;100892.69;18564323;32;20146;-55
2022/07/11 23:56:54;;;;;;;2.28;1.25;;;;;;;16.36;50.49;100898.44;18564071;32;20436;-55
